Date,TemperatureHighF,TemperatureAvgF,TemperatureLowF,DewpointHighF,DewpointAvgF,DewpointLowF,HumidityHigh,HumidityAvg,HumidityLow,PressureMaxIn,PressureMinIn,WindSpeedMaxMPH,WindSpeedAvgMPH,GustSpeedMaxMPH,PrecipitationSumIn
2014-1-1,24.7,17.2,12.3,9.2,6.6,4.0,82,63,46,30.35,30.11,1,0,4,0.00
2014-1-2,14.4,6.7,-1.8,10.4,-0.6,-99.9,86,78,75,30.33,29.89,2,0,7,0.00
2014-1-3,0.0,-0.7,-5.6,-4.7,-63.0,-99.9,80,30,60,30.35,29.75,1,-597,3,0.00
2014-1-4,16.1,-1.7,-7.0,8.7,-63.4,-99.9,79,32,68,30.45,30.18,1,-535,3,0.00
2014-1-5,37.5,19.0,4.8,29.8,0.2,-99.9,93,65,42,30.28,29.94,0,-110,1,0.04
2014-1-6,55.1,39.0,28.2,55.1,37.6,18.3,100,95,66,29.92,29.21,3,0,5,0.62
2014-1-7,28.2,10.8,4.7,19.3,-16.9,-99.9,69,41,36,30.12,29.41,2,-126,5,0.00
2014-1-8,19.9,8.5,4.3,3.4,-22.7,-99.9,66,43,45,30.40,30.11,2,-179,3,0.00
2014-1-9,26.0,6.1,5.2,8.9,-65.1,-99.9,81,20,42,30.59,30.34,2,-659,3,0.00
2014-1-10,31.6,20.1,2.6,29.0,17.5,-1.7,95,89,81,30.55,30.23,0,0,1,0.02
2014-1-11,55.1,40.0,29.0,55.1,34.9,-99.9,100,94,95,30.23,29.20,4,-46,6,0.45
2014-1-12,51.7,41.0,33.8,51.6,32.6,23.8,100,74,51,29.89,29.19,6,0,6,0.00
2014-1-13,48.2,38.4,28.8,39.8,29.1,24.9,88,71,45,30.07,29.83,2,0,5,0.00
2014-1-14,46.2,24.3,40.5,44.7,-22.1,-99.9,97,51,85,29.83,29.55,3,-429,3,0.34
2014-1-15,43.3,21.0,29.3,38.6,-21.7,-99.9,99,52,70,29.96,29.68,1,-407,4,0.36
2014-1-16,33.4,9.9,29.3,32.9,-60.0,-99.9,98,29,95,29.88,29.83,0,-697,0,0.01
2014-1-17,41.9,34.1,28.2,34.1,29.8,24.3,99,86,52,29.92,29.84,2,0,0,0.00
2014-1-18,32.8,28.6,27.8,31.8,22.1,-99.9,98,90,92,29.88,29.59,0,-52,0,0.01
2014-1-19,31.5,28.2,25.8,30.2,23.2,-99.9,98,89,83,29.67,29.47,0,-25,3,0.00
2014-1-20,38.3,30.5,15.9,31.1,24.6,4.6,90,79,59,29.84,29.43,3,0,6,0.01
2014-1-21,15.6,10.8,6.0,5.1,-1.9,-6.9,80,57,40,30.04,29.85,0,0,2,0.00
2014-1-22,18.0,9.8,3.0,2.8,-4.8,-9.5,76,51,39,29.87,29.60,1,0,3,0.00
2014-1-23,18.8,8.4,0.1,-1.5,-6.3,-10.7,61,51,37,30.08,29.83,1,0,3,0.00
2014-1-24,14.8,7.5,0.9,-1.2,-6.2,-9.1,67,54,35,30.20,29.99,1,0,3,0.00
2014-1-25,35.0,20.0,11.7,25.6,-2.9,-99.9,88,54,52,29.98,29.24,3,-134,6,0.00
2014-1-26,18.8,8.8,11.9,6.5,-47.7,-99.9,60,24,34,29.83,29.26,7,-459,7,0.00
2014-1-27,42.2,22.1,17.7,37.2,-3.1,-99.9,93,57,40,29.91,29.44,2,-154,5,0.01
2014-1-28,18.9,14.0,7.9,1.0,-4.0,-9.1,65,45,29,30.25,29.93,1,0,2,0.00
2014-1-29,24.5,16.7,12.3,3.1,-1.5,-6.8,65,45,27,30.18,29.90,2,0,3,0.00
2014-1-30,28.1,15.9,5.0,10.0,3.3,-3.4,80,58,39,30.38,30.15,1,0,3,0.00
2014-1-31,38.6,12.9,13.5,21.6,-37.2,-99.9,87,40,42,30.13,29.96,2,-462,2,0.01
2014-2-1,38.2,10.4,24.5,26.6,-60.6,-99.9,88,23,58,30.29,29.97,1,-683,3,0.00
2014-2-2,-200.0,0.0,200.0,-99.9,-99.9,-99.9,0,0,100,29.99,29.81,0,-999,0,0.00
2014-2-3,29.7,3.5,25.7,24.2,-85.5,-99.9,88,10,84,30.23,29.99,1,-848,1,0.00
2014-2-4,-200.0,0.0,200.0,-99.9,-99.9,-99.9,0,0,100,30.40,30.22,0,-999,0,0.00
2014-2-5,24.4,8.8,21.6,22.4,-55.7,-99.9,93,33,90,30.27,29.64,0,-617,3,0.00
2014-2-6,24.8,9.4,4.8,14.9,-42.4,-99.9,81,39,56,30.21,29.90,0,-434,0,0.03
2014-2-7,28.4,14.9,-1.8,18.6,6.7,-7.0,95,71,52,30.19,30.08,1,0,3,0.01
2014-2-8,28.1,18.1,5.0,15.9,7.1,-0.6,84,63,39,30.24,30.09,0,0,1,0.00
2014-2-9,30.1,25.2,22.7,20.9,15.4,-99.9,90,71,47,30.06,29.90,1,-18,4,0.04
2014-2-10,27.3,19.6,5.6,20.8,11.5,-1.2,91,72,48,30.16,29.85,1,0,7,0.05
2014-2-11,24.8,9.8,-5.9,9.0,-1.0,-12.0,90,63,42,30.38,30.17,1,0,6,0.01
2014-2-12,29.1,11.5,-0.8,2.5,-9.1,-99.9,73,50,24,30.52,30.38,1,0,3,0.00
2014-2-13,31.6,21.4,6.3,31.1,17.9,-2.3,98,87,67,30.38,29.05,2,0,6,0.00
2014-2-14,32.9,28.2,26.1,32.5,18.1,-99.9,99,85,84,29.65,28.78,1,-84,3,0.00
2014-2-15,31.6,19.1,18.6,29.3,-7.0,-99.9,96,70,89,29.81,29.46,0,-250,0,0.00
2014-2-16,29.4,22.9,16.7,27.4,15.3,2.5,96,73,51,29.92,29.43,1,0,8,0.00
2014-2-17,25.1,15.7,4.3,7.1,1.1,-4.1,68,53,35,30.32,29.93,1,0,5,0.00
2014-2-18,24.8,11.3,-1.8,23.1,-5.9,-99.9,94,71,61,30.33,29.89,0,-131,0,0.00
2014-2-19,19.2,0.2,19.2,17.8,-98.4,-99.9,94,2,93,30.04,29.68,0,-965,0,0.00
2014-2-20,45.1,14.3,34.0,34.0,-57.2,-99.9,89,23,51,30.18,29.75,1,-636,3,0.58
2014-2-21,33.2,11.0,32.4,32.4,-66.5,-99.9,97,25,96,30.11,29.63,2,-654,2,0.76
2014-2-22,48.6,14.2,30.9,26.7,-55.4,-99.9,80,21,37,29.89,29.76,3,-613,3,0.00
2014-2-23,47.3,20.0,31.3,27.9,-38.0,-99.9,80,29,44,29.93,29.70,1,-506,5,0.00
2014-2-24,33.2,11.7,20.2,17.0,-53.5,-99.9,59,22,44,29.89,29.66,2,-556,7,0.00
2014-2-25,29.1,17.1,10.9,7.7,-8.0,-99.9,71,46,35,29.92,29.81,2,-118,6,0.00
2014-2-26,20.3,11.1,8.6,3.6,-14.1,-99.9,77,49,35,29.89,29.77,0,-137,1,0.00
2014-2-27,-200.0,0.0,200.0,-99.9,-99.9,-99.9,0,0,100,29.81,29.77,0,-999,0,0.00
2014-2-28,20.8,7.8,3.4,3.4,-33.5,-99.9,66,35,27,30.41,29.83,5,-238,7,0.00
2014-3-1,32.4,18.8,-1.4,19.3,3.8,-7.9,80,55,27,30.42,30.02,3,0,6,0.00
2014-3-2,37.8,31.3,24.7,23.9,18.4,9.0,71,59,49,30.01,29.93,1,0,2,0.00
2014-3-3,24.2,17.6,6.7,10.0,-0.7,-8.2,56,44,30,30.25,29.97,1,0,5,0.00
2014-3-4,27.6,12.3,-0.2,13.7,-17.9,-99.9,71,43,28,30.34,30.20,1,-177,3,0.00
2014-3-5,22.7,11.8,12.3,16.3,-33.0,-99.9,85,45,68,30.47,30.20,0,-411,1,0.00
2014-3-6,19.1,2.7,-1.6,6.1,-61.2,-99.9,84,27,39,30.61,30.47,0,-598,1,0.00
2014-3-7,38.0,10.4,-2.8,22.2,-27.5,-99.9,85,47,39,30.48,29.92,3,-306,8,0.00
2014-3-8,50.8,33.7,18.0,27.6,22.2,15.6,95,66,35,29.91,29.65,1,0,3,0.00
2014-3-9,38.8,21.5,23.5,19.5,-18.7,-99.9,69,38,27,29.89,29.81,2,-233,4,0.00
2014-3-10,34.9,19.2,24.5,31.4,-19.5,-99.9,89,50,57,29.83,29.59,1,-341,2,0.00
2014-3-11,39.9,8.5,29.3,29.2,-70.7,-99.9,95,18,66,29.68,29.43,0,-741,0,0.00
2014-3-12,41.3,22.4,31.3,37.1,-14.8,-99.9,98,57,85,29.68,29.01,0,-350,1,0.58
2014-3-13,34.1,7.3,13.1,33.5,-62.8,-99.9,98,24,52,29.87,29.00,1,-678,3,0.00
2014-3-14,13.1,2.9,7.2,-0.2,-70.4,-99.9,69,18,52,30.10,29.83,1,-700,3,0.00
2014-3-15,55.4,27.1,36.6,35.7,-21.3,-99.9,83,35,39,29.82,29.58,5,-398,6,0.03
2014-3-16,36.5,28.5,18.1,21.8,9.4,-2.1,70,46,27,30.17,29.79,2,0,7,0.00
2014-3-17,29.4,20.3,12.1,3.5,-2.8,-6.7,53,36,24,30.16,30.00,1,0,3,0.00
2014-3-18,38.8,23.3,7.0,17.8,6.2,-0.1,79,51,24,30.33,30.12,1,0,4,0.00
2014-3-19,43.3,29.9,15.1,30.6,21.9,12.2,96,73,48,30.36,29.97,2,0,6,0.00
2014-3-20,47.1,38.5,32.5,40.7,31.7,24.4,98,78,52,29.97,29.54,1,0,6,0.66
2014-3-21,40.9,35.7,28.4,25.9,22.9,19.4,74,60,47,29.96,29.66,2,0,3,0.00
2014-3-22,48.5,35.3,24.7,33.8,23.9,19.4,84,64,45,29.99,29.60,2,0,6,0.00
2014-3-23,41.5,34.0,28.4,24.8,20.0,4.8,85,59,33,29.93,29.86,1,0,7,0.00
2014-3-24,29.8,20.4,12.1,5.9,0.3,-3.0,64,42,27,30.12,30.00,2,0,6,0.00
2014-3-25,36.3,24.8,10.5,17.8,10.1,5.0,86,56,30,30.10,29.91,1,0,3,0.00
2014-3-26,32.2,28.0,20.8,19.2,11.7,1.3,72,51,35,29.96,29.56,3,1,6,0.00
2014-3-27,41.3,29.2,17.8,17.7,5.7,-1.5,58,37,24,30.26,29.96,1,0,6,0.00
2014-3-28,52.9,36.5,34.1,45.9,15.0,-99.9,98,56,40,30.17,29.89,2,-103,6,0.05
2014-3-29,37.9,0.3,37.9,36.3,-98.8,-99.9,94,1,94,30.21,29.95,0,-991,2,0.00
2014-3-30,37.6,19.0,34.1,37.6,-30.3,-99.9,100,50,97,29.99,29.63,2,-480,7,2.56
2014-3-31,34.1,5.6,32.8,33.8,-77.4,-99.9,99,17,99,29.96,29.68,2,-822,2,0.87
2014-4-1,-200.0,0.0,200.0,-99.9,-99.9,-99.9,0,0,100,30.05,29.95,0,-999,0,0.00
2014-4-2,46.7,6.2,29.4,32.7,-78.6,-99.9,90,14,58,30.08,29.97,0,-819,0,0.00
2014-4-3,51.6,20.3,25.4,29.2,-27.9,-99.9,98,43,34,30.09,29.99,1,-415,3,0.00
2014-4-4,37.8,4.4,36.5,36.0,-83.7,-99.9,96,11,92,30.13,29.90,0,-880,3,0.37
2014-4-5,51.0,40.7,36.2,43.9,34.0,23.3,99,79,52,29.89,29.64,1,0,5,0.24
2014-4-6,53.6,42.0,32.4,28.0,23.5,19.3,73,50,27,30.12,29.86,2,0,5,0.00
2014-4-7,59.6,47.3,29.3,38.2,27.6,18.8,88,51,27,30.18,29.90,1,0,3,0.04
2014-4-8,62.7,49.2,41.5,58.4,45.4,33.4,100,88,62,29.89,29.22,3,0,7,0.55
2014-4-9,54.1,43.7,32.8,39.4,29.1,13.0,96,60,30,29.91,29.44,2,0,3,0.00
2014-4-10,62.1,45.6,25.6,31.0,22.8,15.9,82,45,18,30.09,29.91,4,1,11,0.00
2014-4-11,72.3,57.8,48.6,49.5,40.4,31.3,81,54,34,29.96,29.84,2,0,7,0.07
2014-4-12,68.4,54.6,40.6,49.2,39.6,30.6,99,64,27,30.15,29.93,2,0,4,0.11
2014-4-13,49.6,44.9,41.9,43.8,40.5,36.5,97,85,74,30.24,30.00,0,0,2,0.09
2014-4-14,79.2,59.1,37.2,58.6,47.9,35.7,98,70,42,30.00,29.78,5,2,14,0.00
2014-4-15,67.3,61.5,42.8,60.9,57.5,41.2,95,87,74,29.81,29.48,5,2,16,0.43
2014-4-16,42.3,34.1,26.6,40.7,23.8,16.3,96,68,40,30.59,29.67,2,0,10,0.38
2014-4-17,42.2,32.5,23.3,24.5,20.7,15.5,84,63,42,30.79,30.59,3,0,7,0.00
2014-4-18,44.5,34.6,23.2,31.7,27.5,21.1,93,76,56,30.64,30.22,2,0,3,0.00
2014-4-19,57.3,20.3,28.5,40.2,-29.2,-99.9,96,44,47,30.37,30.11,11,-433,11,0.00
2014-4-20,54.8,21.6,28.4,32.3,-32.9,-99.9,89,34,27,30.48,30.28,7,-420,7,0.00
2014-4-21,64.7,5.8,62.4,30.5,-90.1,-99.9,30,2,27,30.28,29.76,7,-883,7,0.00
2014-4-22,75.3,42.3,43.5,46.0,-6.9,-99.9,81,36,27,29.76,29.39,6,-243,6,0.00
2014-4-23,49.8,4.1,45.8,35.8,-91.9,-99.9,66,5,64,29.54,29.35,6,-831,6,0.00
2014-4-24,56.2,31.5,39.6,31.5,-24.2,-99.9,60,26,35,29.86,29.54,8,-334,10,0.00
2014-4-25,49.9,0.2,49.9,-99.9,-99.9,-99.9,0,0,100,29.95,29.77,0,-991,6,0.00
2014-4-26,42.9,10.7,40.6,41.6,-63.8,-99.9,96,24,93,29.83,29.73,2,-741,2,0.08
2014-4-27,46.2,7.6,40.6,44.3,-74.5,-99.9,96,17,93,29.99,29.80,0,-819,0,0.00
2014-4-28,56.9,12.5,48.5,41.2,-69.3,-99.9,73,15,55,30.20,29.94,6,-734,6,0.00
2014-4-29,44.9,41.5,40.1,39.0,32.1,-99.9,83,74,65,30.50,30.20,3,-16,6,0.00
2014-4-30,44.8,18.7,39.6,38.6,-39.6,-99.9,89,36,73,30.51,30.16,3,-558,6,0.02
2014-5-1,52.8,1.3,51.3,51.8,-96.1,-99.9,97,2,95,30.16,29.61,0,-974,0,0.00
2014-5-2,67.8,49.1,45.2,50.4,23.1,-99.9,99,60,42,29.74,29.60,2,-130,10,0.00
2014-5-3,66.4,14.8,64.5,47.2,-81.0,-99.9,50,6,42,29.76,29.66,3,-736,3,0.00
2014-5-4,60.5,37.7,47.9,55.5,-2.7,-99.9,96,42,42,29.66,29.45,6,-305,6,0.02
2014-5-5,63.4,48.0,46.2,49.4,25.0,-99.9,88,56,45,29.81,29.54,5,-117,7,0.00
2014-5-6,64.7,49.0,39.8,42.2,23.2,-99.9,90,48,27,29.98,29.78,5,-54,7,0.00
2014-5-7,69.3,15.4,45.2,38.7,-63.2,-99.9,78,16,23,30.12,29.99,6,-672,6,0.00
2014-5-8,53.8,4.7,48.3,40.8,-90.5,-99.9,72,5,65,30.14,30.01,1,-897,1,0.00
2014-5-9,53.8,19.8,49.2,47.0,-45.9,-99.9,92,26,55,30.21,30.04,1,-608,2,0.01
2014-5-10,-200.0,0.0,200.0,-99.9,-99.9,-99.9,0,0,100,30.04,29.67,0,-999,0,0.00
2014-5-11,-200.0,0.0,200.0,-99.9,-99.9,-99.9,0,0,100,29.97,29.71,0,-991,0,0.00
2014-5-12,-200.0,0.0,200.0,-99.9,-99.9,-99.9,0,0,100,30.12,29.91,0,-999,0,0.00
2014-5-13,-200.0,0.0,200.0,-99.9,-99.9,-99.9,0,0,100,30.29,30.11,0,-999,0,0.00
2014-5-14,-200.0,0.0,200.0,-99.9,-99.9,-99.9,0,0,100,30.29,30.21,0,-999,0,0.00
2014-5-15,-200.0,0.0,200.0,-99.9,-99.9,-99.9,0,0,100,30.24,30.14,0,-999,0,0.00
2014-5-16,73.3,40.8,62.0,63.9,-0.6,-99.9,99,53,67,30.16,29.94,3,-386,8,0.26
2014-5-17,70.1,35.0,52.2,62.6,-19.7,-99.9,99,43,37,30.01,29.81,5,-391,8,0.76
2014-5-18,66.9,43.8,46.1,51.4,10.2,-99.9,88,52,38,30.06,29.96,2,-185,6,0.00
2014-5-19,66.9,54.0,45.4,50.0,37.2,-99.9,96,59,34,30.03,29.96,1,-25,3,0.05
2014-5-20,71.6,58.7,45.5,53.2,47.5,42.6,99,70,39,29.97,29.89,1,0,4,0.01
2014-5-21,71.1,50.4,45.8,55.1,29.1,-99.9,97,66,55,29.96,29.89,3,-130,7,0.00
2014-5-22,62.3,54.1,49.1,55.5,51.6,48.3,98,92,72,29.92,29.84,3,0,10,0.10
2014-5-23,56.9,46.7,50.7,56.3,19.3,-99.9,99,75,88,29.96,29.84,3,-104,3,0.20
2014-5-24,64.8,30.2,50.7,58.1,-19.4,-99.9,100,50,72,30.02,29.92,0,-436,2,0.04
2014-5-25,-200.0,0.0,200.0,-99.9,-99.9,-99.9,0,0,100,30.05,29.94,0,-999,0,0.00
2014-5-26,-200.0,0.0,200.0,-99.9,-99.9,-99.9,0,0,100,29.93,29.73,0,-999,0,0.00
2014-5-27,-200.0,0.0,200.0,-99.9,-99.9,-99.9,0,0,100,29.94,29.76,0,-986,0,0.00
2014-5-28,-200.0,0.0,200.0,-99.9,-99.9,-99.9,0,0,100,30.18,29.90,0,-999,0,0.00
2014-5-29,62.1,9.0,44.5,43.7,-75.3,-99.9,89,12,39,30.20,30.10,4,-799,4,0.00
2014-5-30,71.6,48.3,40.6,58.1,13.9,-99.9,98,60,45,30.11,29.94,3,-109,3,0.01
2014-5-31,64.8,44.1,44.3,55.8,7.0,-99.9,97,55,41,30.26,30.02,7,-161,13,0.00
2014-6-1,76.7,60.1,42.5,54.3,44.8,39.0,100,63,29,30.30,30.17,2,0,6,0.00
2014-6-2,83.8,67.8,48.3,57.7,51.2,44.9,94,59,32,30.18,29.93,2,0,3,0.00
2014-6-3,80.1,66.0,54.7,60.9,55.1,49.4,96,70,46,29.96,29.86,5,0,7,0.00
2014-6-4,59.2,43.7,55.1,56.0,17.2,-99.9,95,66,76,29.86,29.75,2,-235,3,0.03
2014-6-5,60.7,33.8,54.1,60.1,-7.0,-99.9,99,59,95,29.76,29.62,0,-375,0,0.00
2014-6-6,73.0,57.3,52.5,65.1,37.2,-99.9,100,70,54,29.82,29.64,1,-84,2,0.00
2014-6-7,81.6,69.1,55.3,69.1,57.7,53.0,96,70,40,29.88,29.80,2,0,3,0.00
2014-6-8,85.1,71.6,56.7,65.2,57.3,50.8,94,64,33,29.90,29.80,1,0,5,0.00
2014-6-9,83.2,70.1,60.2,67.3,60.8,56.1,93,74,43,29.92,29.84,2,0,3,0.00
2014-6-10,73.5,55.9,57.6,68.7,20.3,-99.9,97,64,77,30.08,29.89,3,-125,5,0.10
2014-6-11,70.8,61.0,50.5,61.6,53.1,48.2,98,77,50,30.16,30.08,3,0,5,0.00
2014-6-12,61.3,56.3,57.8,56.9,45.9,-99.9,91,82,85,30.13,30.05,1,-37,5,0.01
2014-6-13,60.2,48.6,57.5,59.9,27.2,-99.9,99,77,90,30.05,29.78,6,-122,6,0.64
2014-6-14,61.3,21.5,57.0,57.8,-45.3,-99.9,100,35,99,29.86,29.76,0,-597,0,0.02
2014-6-15,76.1,29.6,53.6,58.8,-41.8,-99.9,79,22,46,30.01,29.85,3,-495,3,0.00
2014-6-16,79.8,62.2,51.9,58.4,40.8,-99.9,93,59,31,30.10,29.96,4,-46,5,0.00
2014-6-17,85.1,72.6,59.9,72.7,63.9,55.2,91,76,51,30.00,29.78,1,0,5,0.00
2014-6-18,80.1,71.9,68.1,75.9,57.9,-99.9,97,72,55,29.88,29.63,3,-25,8,0.10
2014-6-19,80.1,61.9,62.7,73.5,33.0,-99.9,91,56,34,29.92,29.85,3,-136,3,0.00
2014-6-20,71.3,7.4,58.9,47.0,-98.7,-99.9,48,0,48,29.93,29.85,5,-849,5,0.00
2014-6-21,71.6,3.0,70.1,47.9,-96.8,-99.9,43,1,43,29.93,29.83,1,-923,1,0.00
2014-6-22,69.4,0.8,64.3,-99.9,-99.9,-99.9,0,0,100,30.00,29.89,0,-986,0,0.00
2014-6-23,81.2,8.2,63.2,54.8,-91.7,-99.9,65,3,46,30.11,30.00,153,-843,153,0.00
2014-6-24,78.6,23.5,58.9,61.6,-52.9,-99.9,75,19,53,30.11,29.93,2,-586,3,0.00
2014-6-25,87.6,24.9,64.7,69.1,-47.1,-99.9,77,24,54,29.94,29.78,1,-599,2,0.00
2014-6-26,70.8,1.2,70.8,-99.9,-99.9,-99.9,95,1,95,29.98,29.74,0,-940,0,0.00
2014-6-27,-200.0,0.0,200.0,-99.9,-99.9,-99.9,43,0,43,30.17,29.97,0,-978,0,0.00
2014-6-28,-200.0,0.0,200.0,-99.9,-99.9,-99.9,0,0,100,30.23,30.16,0,-999,0,0.00
2014-6-29,85.9,42.8,73.9,72.7,-17.9,-99.9,74,25,36,30.21,30.01,2,-472,3,0.00
2014-7-3,77.4,37.8,67.8,74.4,-14.2,-99.9,97,48,87,29.95,29.84,7,-462,7,0.87
2014-7-4,71.8,62.1,64.3,71.2,52.2,-99.9,100,89,93,29.95,29.77,0,-80,0,0.99
2014-7-5,72.0,35.9,56.0,68.4,-10.6,-99.9,99,53,45,29.93,29.72,5,-412,5,0.37
2014-7-6,84.0,29.1,60.1,59.5,-55.6,-99.9,71,19,51,29.93,29.79,3,-533,3,0.00
2014-7-7,82.6,33.8,66.6,76.2,-45.1,-99.9,97,29,79,29.81,29.62,1,-432,1,0.10
2014-7-8,79.0,0.3,79.0,-99.9,-99.9,-99.9,0,0,100,29.74,29.60,1,-995,1,0.00
2014-7-9,74.0,6.3,69.8,66.4,-86.7,-99.9,86,7,79,29.89,29.59,0,-911,1,0.00
2014-7-10,71.1,47.4,64.7,65.5,34.7,61.6,95,47,74,30.11,29.88,0,0,0,0.05
2014-7-11,74.2,14.9,62.3,61.4,11.4,52.8,75,13,57,30.20,30.10,2,0,2,0.00
2014-7-12,83.2,35.8,60.5,67.0,17.1,51.0,84,19,44,30.18,30.05,6,0,6,0.00
2014-7-13,85.9,38.6,66.8,68.9,23.6,59.7,79,26,53,30.05,29.83,7,0,7,0.00
2014-7-14,71.8,3.9,71.5,68.7,2.9,68.4,90,4,90,29.86,29.79,1,0,1,0.00
2014-7-15,86.3,11.4,76.7,78.6,10.0,72.5,87,12,67,29.82,29.68,3,0,3,0.00
2014-7-16,-200.0,0.0,200.0,-99.9,0.0,200.0,0,0,100,29.79,29.72,0,0,0,0.09
2014-7-17,75.1,16.4,63.4,63.8,14.3,57.1,80,18,68,30.02,29.80,0,0,0,0.00
2014-7-18,79.6,46.6,56.0,71.8,28.9,55.0,96,35,43,30.18,30.03,10,0,10,0.00
2014-7-19,77.6,67.6,56.9,65.9,60.9,55.2,98,80,56,30.23,30.17,3,0,5,0.00
2014-7-20,78.1,37.6,57.8,63.0,29.0,52.4,98,41,47,30.19,30.12,5,0,5,0.00
2014-7-21,65.2,5.8,62.0,60.0,5.5,58.4,88,8,83,30.17,30.10,157,2,157,0.00
2014-7-22,85.9,39.5,56.9,72.7,25.0,55.5,95,33,70,30.11,29.91,2,0,2,0.00
2014-7-23,90.7,51.3,70.1,74.7,42.3,66.7,93,53,57,29.91,29.66,5,0,5,0.00
2014-7-24,72.0,48.4,62.0,63.6,5.5,63.6,75,7,75,29.86,29.79,0,0,0,0.02
2014-7-25,80.1,57.0,54.7,64.4,36.0,52.7,93,39,50,29.93,29.86,0,0,1,0.00
2014-7-26,82.8,70.6,57.8,67.2,59.4,55.8,98,71,42,29.92,29.80,0,0,1,0.00
2014-7-27,77.2,37.7,62.9,69.2,32.7,56.6,97,44,75,29.84,29.61,0,0,0,0.05
2014-7-28,82.2,43.4,64.5,76.0,40.8,62.5,100,52,69,29.63,29.37,0,0,0,0.99
2014-7-29,74.4,45.9,59.0,63.9,41.7,56.6,98,57,60,29.89,29.48,0,0,0,0.00
2014-7-30,-200.0,0.0,200.0,-99.9,0.0,200.0,0,0,100,30.00,29.89,0,0,0,0.00
2014-7-31,-200.0,0.0,200.0,-99.9,0.0,200.0,0,0,100,30.12,30.00,0,0,0,0.00
2014-8-1,-200.0,0.0,200.0,-99.9,0.0,200.0,0,0,100,30.18,30.11,0,0,0,0.00
2014-8-2,68.6,5.2,66.9,68.6,3.7,67.4,100,5,100,30.19,30.10,0,0,0,0.00
2014-8-3,60.1,0.8,60.1,-99.9,0.0,200.0,0,0,100,30.10,30.01,0,0,0,0.00
2014-8-4,-200.0,0.0,200.0,-99.9,0.0,200.0,0,0,100,30.02,29.93,0,0,0,0.00
2014-8-5,68.4,0.3,68.4,-99.9,0.0,200.0,0,0,100,29.98,29.85,0,0,0,0.03
2014-8-6,76.8,30.5,65.3,66.6,29.1,60.4,98,42,64,29.84,29.73,1,0,1,0.02
2014-8-7,67.3,20.7,56.5,61.1,13.3,53.8,89,25,82,29.89,29.80,0,0,0,0.00
2014-8-8,74.6,39.6,54.7,58.1,24.4,53.0,98,40,72,29.97,29.89,0,0,0,0.00
2014-8-9,81.1,68.2,57.2,71.8,58.8,55.1,96,74,54,30.04,29.96,2,0,2,0.00
2014-8-10,83.0,62.1,57.5,67.8,53.7,55.6,98,68,43,30.10,30.03,0,0,0,0.00
2014-8-11,81.4,28.7,56.7,68.6,23.7,55.3,97,39,66,30.11,30.03,0,0,0,0.00
2014-8-12,81.8,34.8,60.5,73.9,23.6,58.5,94,26,51,30.08,29.99,5,0,5,0.00
2014-8-13,67.3,18.4,63.4,64.3,12.4,63.1,99,20,93,29.99,29.58,13,0,13,0.21
2014-8-14,63.2,46.9,59.2,62.9,46.6,58.9,99,76,98,29.82,29.60,0,0,0,0.01
2014-8-15,65.8,2.9,60.1,57.3,0.5,57.3,74,2,70,29.86,29.80,0,0,0,0.00
2014-8-16,74.1,45.1,54.7,60.4,26.3,51.2,88,37,49,29.92,29.85,2,0,2,0.00
2014-8-17,75.3,65.4,59.3,67.3,58.0,56.0,95,77,63,29.85,29.72,3,0,3,0.00
2014-8-18,59.9,2.4,56.3,56.3,1.2,54.9,95,5,88,29.83,29.73,1,0,1,0.00
2014-8-19,68.9,3.4,65.2,61.1,2.5,57.8,77,3,77,29.92,29.82,0,0,0,0.00
2014-8-20,61.2,3.6,59.6,56.4,1.2,56.0,89,2,88,30.02,29.92,0,0,0,0.00
2014-8-21,53.5,4.2,51.1,-99.9,0.0,200.0,0,0,100,30.07,30.01,0,0,0,0.00
2014-8-22,63.7,12.4,59.8,63.7,7.6,59.8,100,12,93,30.08,30.05,1,0,1,0.00
2014-8-23,71.1,28.9,56.7,63.9,22.3,55.4,93,28,63,30.10,30.06,5,0,5,0.00
2014-8-24,79.6,29.3,55.7,70.6,22.5,57.2,100,25,51,30.11,30.05,1,0,2,0.00
2014-8-25,81.2,20.8,68.1,69.1,4.5,65.1,90,6,79,30.12,30.06,0,0,0,0.00
2014-8-26,84.1,30.3,70.1,69.0,23.8,65.4,89,26,58,30.11,29.97,1,0,1,0.00
2014-8-27,86.5,55.9,65.6,72.2,49.9,63.2,94,62,62,29.97,29.77,1,0,3,0.00
2014-8-28,76.8,63.7,61.0,68.5,50.2,50.4,90,60,50,29.94,29.76,2,0,3,0.00
2014-8-29,73.7,36.6,55.1,57.5,21.9,50.0,79,26,57,30.23,29.94,6,0,6,0.00
2014-8-30,76.7,45.2,62.4,63.1,37.5,56.2,89,42,51,30.25,30.07,2,0,8,0.00
2014-8-31,84.5,69.9,65.2,73.6,61.7,60.8,94,74,67,30.06,29.87,1,0,5,0.09
2014-9-1,74.9,12.7,70.6,73.7,2.7,69.9,97,4,96,29.93,29.86,0,0,0,0.00
2014-9-2,73.5,6.8,73.2,72.9,6.1,72.6,98,8,98,29.89,29.66,0,0,0,0.00
2014-9-3,74.0,41.1,62.6,72.6,33.7,59.9,99,48,66,30.02,29.65,66,1,66,0.63
2014-9-4,83.2,69.7,56.9,67.4,60.4,54.9,99,75,39,30.15,30.03,1,0,2,0.00
2014-9-5,88.2,75.0,60.7,72.0,66.8,59.2,98,78,52,30.10,29.89,1,0,5,0.00
2014-9-6,89.0,76.5,64.5,77.7,71.0,62.6,97,84,62,29.89,29.68,1,0,3,0.13
2014-9-7,74.7,62.5,56.5,63.0,53.9,48.5,99,73,43,30.17,29.87,0,0,1,0.16
2014-9-8,72.8,37.7,51.4,58.3,29.5,48.4,94,38,49,30.35,30.17,7,0,7,0.00
2014-9-9,69.1,48.8,48.0,56.7,40.1,46.6,98,63,55,30.34,30.18,6,0,6,0.00
2014-9-10,58.7,58.4,58.1,57.2,56.8,56.4,96,94,93,30.17,30.13,0,0,0,0.00
2014-9-11,67.9,66.8,65.5,66.4,64.7,62.5,96,93,89,29.82,29.77,0,0,0,0.03
2014-9-24,48.3,47.2,46.0,46.1,45.1,44.1,93,92,92,30.56,30.53,0,0,0,0.00
2014-9-25,62.4,51.6,41.6,53.7,47.1,40.5,99,86,59,30.52,30.22,0,0,1,0.00
2014-9-26,75.3,58.6,43.2,60.2,52.4,42.1,99,82,54,30.22,30.10,1,0,2,0.00
2014-10-7,62.9,61.8,61.6,57.7,57.2,56.8,87,85,81,29.95,29.93,0,0,1,0.00
2014-10-8,71.6,63.4,55.3,62.8,54.6,41.6,99,75,48,29.93,29.64,3,0,7,0.03
2014-10-9,63.1,53.4,44.3,42.7,38.8,33.2,82,60,34,29.92,29.79,1,0,5,0.00
2014-10-10,60.7,47.8,39.6,42.4,37.2,36.8,93,68,44,30.08,29.92,1,0,5,0.00
2014-10-11,50.1,43.7,40.2,49.0,42.1,37.8,98,93,85,30.10,30.01,0,0,1,0.18
2014-10-12,58.7,28.0,35.6,43.4,21.4,35.1,98,40,50,30.23,30.09,1,0,3,0.00
2014-10-13,60.5,52.3,32.1,53.7,45.7,30.8,97,75,62,30.31,30.19,2,0,5,0.00
2014-10-14,74.7,43.5,56.3,66.3,39.3,53.7,97,63,71,30.20,30.09,3,0,3,0.00
2014-10-15,78.5,34.5,61.2,65.9,26.5,58.6,98,38,66,30.10,29.94,5,0,6,0.00
2014-10-16,68.4,2.6,68.4,-99.9,0.0,200.0,96,1,96,29.93,29.60,3,0,3,0.00
2014-10-17,-200.0,0.0,200.0,-99.9,0.0,200.0,0,0,100,29.64,29.56,0,0,0,0.00
2014-10-18,-200.0,0.0,200.0,-99.9,0.0,200.0,0,0,100,29.60,29.43,0,0,0,0.00
2014-10-19,50.5,0.4,50.5,-99.9,0.0,200.0,51,0,51,29.89,29.52,2,0,2,0.00
2014-10-20,-200.0,0.0,200.0,-99.9,0.0,200.0,0,0,100,29.98,29.89,0,0,0,0.00
2014-10-21,-200.0,0.0,200.0,-99.9,0.0,200.0,0,0,100,29.97,29.88,0,0,0,0.00
2014-10-22,-200.0,0.0,200.0,-99.9,0.0,200.0,0,0,100,30.03,29.84,0,0,0,0.00
2014-10-23,50.8,13.9,47.0,50.8,13.3,47.0,100,29,100,29.82,29.61,8,0,8,0.00
2014-10-24,-200.0,0.0,200.0,-99.9,0.0,200.0,0,0,100,29.69,29.62,0,0,0,0.00
2014-10-25,-200.0,0.0,200.0,-99.9,0.0,200.0,0,0,100,29.70,29.42,0,0,0,0.00
2014-10-26,-200.0,0.0,200.0,-99.9,0.0,200.0,0,0,100,29.62,29.35,0,0,0,0.00
2014-10-27,-200.0,0.0,200.0,-99.9,0.0,200.0,0,0,100,29.98,29.61,0,0,0,0.00
2014-10-28,-200.0,0.0,200.0,-99.9,0.0,200.0,0,0,100,30.03,29.89,0,0,0,0.00
2014-10-29,-200.0,0.0,200.0,-99.9,0.0,200.0,0,0,100,29.89,29.74,0,0,0,0.00
2014-10-30,-200.0,0.0,200.0,-99.9,0.0,200.0,0,0,100,29.95,29.81,0,0,0,0.00
2014-10-31,-200.0,0.0,200.0,-99.9,0.0,200.0,0,0,100,30.01,29.94,0,0,0,0.00
2014-11-1,-200.0,0.0,200.0,-99.9,0.0,200.0,0,0,100,29.94,29.77,0,0,0,0.00
2014-11-2,-200.0,0.0,200.0,-99.9,0.0,200.0,0,0,100,29.81,29.58,0,0,0,0.00
2014-11-3,-200.0,0.0,200.0,-99.9,0.0,200.0,0,0,100,29.94,29.74,0,0,0,0.00
2014-11-8,-200.0,0.0,200.0,-99.9,0.0,200.0,0,0,100,29.87,29.82,0,0,0,0.00
2014-11-9,-200.0,0.0,200.0,-99.9,0.0,200.0,0,0,100,29.95,29.80,0,0,0,0.00
2014-11-10,-200.0,0.0,200.0,-99.9,0.0,200.0,0,0,100,30.15,29.95,0,0,0,0.00
2014-11-11,59.2,17.5,44.3,48.5,15.0,41.6,95,27,67,30.15,29.93,3,0,3,0.01
2014-11-12,-200.0,0.0,200.0,-99.9,0.0,200.0,87,2,85,29.94,29.78,0,0,0,0.00
2014-11-13,39.9,9.2,30.1,34.2,6.6,26.1,91,18,72,30.04,29.91,0,0,0,0.00
2014-11-14,36.3,10.7,26.0,23.7,6.0,20.0,82,21,61,30.05,29.84,0,0,0,0.01
2014-11-15,36.3,24.0,20.6,23.6,15.1,14.1,90,57,41,30.28,30.05,3,0,3,0.14
2014-11-16,39.8,13.9,35.3,29.7,9.6,22.1,80,24,50,30.32,30.07,2,0,2,0.03
2014-11-17,35.2,7.9,33.5,31.1,6.9,28.4,90,19,78,30.06,29.39,0,0,0,0.02
2014-11-18,31.6,9.3,23.2,12.2,2.4,4.9,49,17,38,29.84,29.38,3,0,8,0.11
2014-11-19,33.8,17.4,23.2,14.1,6.9,6.8,56,29,35,30.06,29.82,2,0,2,0.00
2014-11-20,43.6,32.6,26.4,25.1,17.7,12.6,67,54,43,29.99,29.69,1,0,5,0.19
2014-11-21,34.1,27.3,21.6,14.2,10.5,5.3,62,49,37,30.35,29.85,2,0,6,0.00
2014-11-22,39.1,30.1,18.6,21.3,13.1,6.7,76,51,34,30.36,29.97,1,0,3,0.01
2014-11-23,56.2,44.7,35.9,43.1,36.2,20.3,87,73,51,30.09,29.97,0,0,6,0.06
2014-11-24,61.0,16.6,37.0,57.7,12.9,34.1,93,29,87,30.04,29.48,3,0,3,0.01
2014-11-25,59.6,1.7,58.3,-99.9,0.0,200.0,0,0,100,30.05,29.61,1,0,1,0.00
2014-11-26,-200.0,0.0,200.0,-99.9,0.0,200.0,0,0,100,30.16,30.05,0,0,0,0.00
2014-11-29,-200.0,0.0,200.0,-99.9,0.0,200.0,0,0,100,30.25,30.20,0,0,0,0.00
2014-11-30,-200.0,0.0,200.0,-99.9,0.0,200.0,0,0,100,30.20,29.94,0,0,0,0.00
2014-12-1,55.4,1.6,54.8,48.3,1.4,47.7,77,3,77,30.41,29.91,1,0,2,0.02
2014-12-2,30.1,7.0,28.2,22.1,4.6,20.3,72,16,71,30.67,30.38,0,0,0,0.00
2014-12-3,31.6,2.0,31.5,31.1,2.0,31.0,98,7,98,30.37,29.80,2,0,2,0.00
2014-12-4,34.7,8.2,21.8,31.8,6.7,17.2,89,25,76,30.53,30.00,0,0,0,0.00
2014-12-5,32.2,18.2,16.9,24.8,13.9,12.6,89,59,66,30.67,30.43,2,0,2,0.00
2014-12-6,28.4,3.0,27.8,27.2,2.6,26.0,95,9,93,30.43,30.10,0,0,0,0.00
2014-12-7,31.0,6.2,16.7,30.5,1.2,-0.5,98,11,39,30.69,30.20,2,0,2,0.00
2014-12-8,19.5,3.7,14.1,8.9,0.6,-1.7,63,12,46,30.76,30.53,10,0,10,0.00
2014-12-9,36.6,3.0,35.5,36.6,0.5,36.6,100,1,100,30.51,29.53,5,0,5,0.00
2014-12-10,36.0,1.1,35.0,-99.9,0.0,200.0,0,0,100,29.55,29.38,0,0,0,0.00
2014-12-11,60.5,3.5,31.3,60.2,2.7,31.1,99,7,99,29.70,29.36,1,0,1,0.65
2014-12-12,32.7,6.9,31.3,31.4,6.4,2.9,97,20,29,29.83,29.70,0,0,0,0.00
2014-12-13,34.6,3.1,34.4,28.2,0.6,28.2,78,2,78,29.80,29.71,3,0,3,0.00
2014-12-14,40.2,12.0,32.1,30.9,8.5,28.1,76,22,67,29.86,29.71,2,0,2,0.05
2014-12-15,34.9,6.2,31.3,28.7,5.0,26.7,85,14,74,30.11,29.84,1,0,3,0.00
2014-12-16,34.9,5.5,33.7,33.0,1.6,32.5,97,5,95,30.11,29.91,0,0,0,0.04
2014-12-17,39.5,6.0,34.7,37.5,3.8,34.4,100,10,99,29.91,29.62,0,0,0,0.19
2014-12-18,-200.0,0.0,200.0,-99.9,0.0,200.0,0,0,100,29.80,29.63,0,0,0,0.00
2014-12-19,-200.0,0.0,200.0,-99.9,0.0,200.0,0,0,100,30.09,29.78,0,0,0,0.00
2014-12-20,-200.0,0.0,200.0,-99.9,0.0,200.0,0,0,100,30.27,30.09,0,0,0,0.00
2014-12-21,-200.0,0.0,200.0,-99.9,0.0,200.0,0,0,100,30.32,30.24,0,0,0,0.00
2014-12-22,-200.0,0.0,200.0,-99.9,0.0,200.0,0,0,100,30.35,30.25,0,0,0,0.00
2014-12-23,37.2,0.9,37.2,-99.9,0.0,200.0,100,3,100,30.26,30.14,3,0,3,0.64
2014-12-24,-200.0,0.0,200.0,-99.9,0.0,200.0,0,0,100,30.14,29.49,0,0,0,0.00
2014-12-25,48.0,1.4,47.6,48.0,1.4,47.6,100,4,100,29.87,29.39,3,0,3,0.51
2014-12-26,-200.0,0.0,200.0,-99.9,0.0,200.0,0,0,100,30.09,29.88,0,0,0,0.00
2014-12-27,-200.0,0.0,200.0,-99.9,0.0,200.0,0,0,100,30.15,29.93,153,1,153,0.00
2014-12-28,47.1,0.4,47.1,-99.9,0.0,200.0,0,0,100,29.93,29.67,1,0,1,0.00
2014-12-29,-200.0,0.0,200.0,-99.9,0.0,200.0,0,0,100,30.17,29.92,0,0,0,0.00
2014-12-30,-200.0,0.0,200.0,-99.9,0.0,200.0,0,0,100,30.30,30.17,0,0,0,0.00
2014-12-31,-200.0,0.0,200.0,-99.9,0.0,200.0,0,0,100,30.25,30.04,0,0,0,0.00
2015-1-1,-200.0,0.0,200.0,-99.9,0.0,200.0,0,0,100,30.04,29.82,0,0,0,0.00
2015-1-2,34.9,0.9,29.0,14.4,0.2,14.4,54,1,54,30.41,29.84,0,0,0,0.00